createdAt,value
2023-04-18T00:00:44.732Z,100817.10
2023-04-18T00:03:38.405Z,100813.13
2023-04-18T00:06:40.926Z,100815.30
2023-04-18T00:09:45.931Z,100816.20
2023-04-18T00:12:53.078Z,100813.98
2023-04-18T00:15:38.930Z,100810.12
2023-04-18T00:18:26.830Z,100812.07
2023-04-18T00:21:48.549Z,100812.19
2023-04-18T00:24:32.647Z,100811.13
2023-04-18T00:30:07.172Z,100811.40
2023-04-18T00:32:54.639Z,100810.96
2023-04-18T00:38:43.375Z,100811.98
2023-04-18T00:41:45.195Z,100813.30
2023-04-18T00:44:21.645Z,100811.92
2023-04-18T00:50:14.900Z,100806.55
2023-04-18T00:52:59.920Z,100803.85
2023-04-18T00:55:46.940Z,100805.53
2023-04-18T00:58:41.218Z,100800.77
2023-04-18T01:01:30.213Z,100798.33
2023-04-18T01:04:18.012Z,100797.81
2023-04-18T01:07:12.422Z,100799.21
2023-04-18T01:09:42.249Z,100798.02
2023-04-18T01:12:10.638Z,100799.52
2023-04-18T01:14:45.451Z,100796.27
2023-04-18T01:17:14.213Z,100801.13
2023-04-18T01:19:42.789Z,100802.00
2023-04-18T01:22:14.250Z,100798.76
2023-04-18T01:24:42.696Z,100797.88
2023-04-18T01:27:16.082Z,100798.92
2023-04-18T01:29:44.434Z,100799.23
2023-04-18T01:32:12.888Z,100800.45
2023-04-18T01:34:41.515Z,100800.87
2023-04-18T01:37:09.884Z,100803.08
2023-04-18T01:39:38.203Z,100796.83
2023-04-18T01:42:06.678Z,100796.30
2023-04-18T01:44:35.070Z,100796.27
2023-04-18T01:47:03.625Z,100797.27
2023-04-18T01:49:31.942Z,100798.54
2023-04-18T01:52:00.399Z,100796.59
2023-04-18T01:54:28.786Z,100791.77
2023-04-18T01:56:57.114Z,100793.21
2023-04-18T01:59:25.585Z,100793.91
2023-04-18T02:01:54.983Z,100797.80
2023-04-18T02:04:26.863Z,100799.58
2023-04-18T02:06:59.054Z,100799.46
2023-04-18T02:12:08.062Z,100794.76
2023-04-18T02:14:37.021Z,100795.03
2023-04-18T02:17:05.568Z,100797.96
2023-04-18T02:19:34.497Z,100793.89
2023-04-18T02:22:09.269Z,100794.86
2023-04-18T02:24:37.708Z,100793.27
2023-04-18T02:27:06.274Z,100791.73
2023-04-18T02:29:34.645Z,100793.48
2023-04-18T02:32:03.580Z,100793.45
2023-04-18T02:34:33.769Z,100793.96
2023-04-18T02:37:02.273Z,100795.45
2023-04-18T02:39:31.244Z,100798.25
2023-04-18T02:42:00.668Z,100801.00
2023-04-18T02:44:29.537Z,100799.75
2023-04-18T02:46:58.164Z,100803.48
2023-04-18T02:49:27.447Z,100802.63
2023-04-18T02:51:56.843Z,100807.21
2023-04-18T02:54:25.394Z,100806.77
2023-04-18T02:56:54.619Z,100801.74
2023-04-18T02:59:23.006Z,100804.85
2023-04-18T03:01:51.369Z,100797.67
2023-04-18T03:04:19.934Z,100802.74
2023-04-18T03:06:49.058Z,100801.79
2023-04-18T03:09:17.483Z,100799.73
2023-04-18T03:11:46.612Z,100798.84
2023-04-18T03:14:16.282Z,100799.41
2023-04-18T03:16:45.124Z,100801.70
2023-04-18T03:19:14.364Z,100799.58
2023-04-18T03:21:43.921Z,100800.88
2023-04-18T03:24:12.829Z,100797.99
2023-04-18T03:26:42.470Z,100795.05
2023-04-18T03:29:11.673Z,100794.25
2023-04-18T03:31:41.559Z,100797.90
2023-04-18T03:34:11.431Z,100798.87
2023-04-18T03:36:41.543Z,100802.22
2023-04-18T03:39:17.993Z,100802.73
2023-04-18T03:41:58.242Z,100799.44
2023-04-18T03:44:55.724Z,100799.99
2023-04-18T03:47:57.121Z,100799.85
2023-04-18T03:50:27.994Z,100802.48
2023-04-18T03:53:01.210Z,100803.97
2023-04-18T03:55:31.904Z,100806.10
2023-04-18T03:58:01.111Z,100807.33
2023-04-18T04:00:33.274Z,100805.04
2023-04-18T04:03:02.681Z,100801.41
2023-04-18T04:05:31.888Z,100805.45
2023-04-18T04:08:11.282Z,100810.20
2023-04-18T04:10:40.714Z,100812.52
2023-04-18T04:13:09.056Z,100814.77
2023-04-18T04:15:38.680Z,100815.83
2023-04-18T04:18:07.272Z,100818.02
2023-04-18T04:20:36.628Z,100817.83
2023-04-18T04:23:06.396Z,100824.27
2023-04-18T04:25:34.996Z,100819.56
2023-04-18T04:28:03.496Z,100820.59
2023-04-18T04:30:33.510Z,100826.50
2023-04-18T04:33:03.328Z,100826.83
2023-04-18T04:35:32.269Z,100825.27
2023-04-18T04:38:01.737Z,100823.91
2023-04-18T04:40:30.211Z,100828.45
2023-04-18T04:43:06.137Z,100830.06
2023-04-18T04:45:42.570Z,100830.36
2023-04-18T04:48:11.449Z,100829.90
2023-04-18T04:51:00.261Z,100833.16
2023-04-18T04:53:30.701Z,100834.80
2023-04-18T04:56:00.368Z,100839.80
2023-04-18T04:58:28.914Z,100834.89
2023-04-18T05:01:00.668Z,100838.30
2023-04-18T05:03:40.963Z,100840.02
2023-04-18T05:06:12.590Z,100841.84
2023-04-18T05:08:41.013Z,100843.06
2023-04-18T05:11:09.350Z,100849.09
2023-04-18T05:13:37.936Z,100845.23
2023-04-18T05:16:07.451Z,100846.58
2023-04-18T05:18:39.120Z,100851.48
2023-04-18T05:21:07.735Z,100848.08
2023-04-18T05:23:37.331Z,100853.62
2023-04-18T05:26:06.288Z,100856.83
2023-04-18T05:28:34.686Z,100856.65
2023-04-18T05:31:03.366Z,100860.10
2023-04-18T05:33:32.189Z,100863.97
2023-04-18T05:36:00.674Z,100862.45
2023-04-18T05:38:29.038Z,100868.88
2023-04-18T05:41:00.424Z,100871.35
2023-04-18T05:43:29.020Z,100868.73
2023-04-18T05:45:57.976Z,100871.10
2023-04-18T05:48:27.667Z,100867.81
2023-04-18T05:50:56.084Z,100866.48
2023-04-18T05:53:24.479Z,100866.70
2023-04-18T05:55:52.959Z,100864.73
2023-04-18T05:58:21.410Z,100865.84
2023-04-18T06:00:58.209Z,100870.21
2023-04-18T06:03:26.741Z,100867.64
2023-04-18T06:08:14.932Z,100870.54
2023-04-18T06:10:46.098Z,100873.60
2023-04-18T06:13:15.286Z,100875.49
2023-04-18T06:15:51.700Z,100874.21
2023-04-18T06:18:29.267Z,100876.27
2023-04-18T06:20:57.879Z,100881.92
2023-04-18T06:23:26.264Z,100886.20
2023-04-18T06:25:57.270Z,100887.62
2023-04-18T06:28:26.351Z,100894.21
2023-04-18T06:30:54.709Z,100893.59
2023-04-18T06:33:25.529Z,100896.63
2023-04-18T06:35:54.891Z,100896.92
2023-04-18T06:38:23.321Z,100900.55
2023-04-18T06:40:52.006Z,100904.09
2023-04-18T06:43:22.154Z,100909.13
2023-04-18T06:45:50.641Z,100908.83
2023-04-18T06:48:19.102Z,100915.14
2023-04-18T06:50:47.529Z,100913.38
2023-04-18T06:53:15.934Z,100916.77
2023-04-18T06:55:44.446Z,100914.96
2023-04-18T06:58:16.332Z,100916.95
2023-04-18T07:00:48.055Z,100910.63
2023-04-18T07:03:16.646Z,100907.64
2023-04-18T07:06:04.922Z,100912.98
2023-04-18T07:08:41.237Z,100914.58
2023-04-18T07:11:09.621Z,100915.95
2023-04-18T07:13:40.499Z,100918.64
2023-04-18T07:16:09.618Z,100918.52
2023-04-18T07:18:38.731Z,100920.80
2023-04-18T07:21:07.888Z,100919.27
2023-04-18T07:23:38.040Z,100919.99
2023-04-18T07:26:12.803Z,100923.01
2023-04-18T07:28:52.012Z,100921.48
2023-04-18T07:31:21.106Z,100922.73
2023-04-18T07:33:49.468Z,100929.13
2023-04-18T07:36:47.156Z,100929.38
2023-04-18T07:39:15.614Z,100931.01
2023-04-18T07:41:44.038Z,100933.22
2023-04-18T07:44:12.586Z,100932.27
2023-04-18T07:46:41.339Z,100935.34
2023-04-18T07:49:09.949Z,100937.90
2023-04-18T07:51:39.635Z,100940.10
2023-04-18T07:54:11.240Z,100940.05
2023-04-18T07:56:39.669Z,100939.35
2023-04-18T07:59:08.074Z,100937.60
2023-04-18T08:01:36.489Z,100943.80
2023-04-18T08:04:05.318Z,100946.89
2023-04-18T08:06:34.854Z,100951.87
2023-04-18T08:09:05.673Z,100952.05
2023-04-18T08:11:34.242Z,100958.52
2023-04-18T08:14:13.136Z,100957.99
2023-04-18T08:17:10.592Z,100963.88
2023-04-18T08:19:39.920Z,100967.87
2023-04-18T08:22:13.270Z,100967.81
2023-04-18T08:27:26.346Z,100972.34
2023-04-18T08:29:55.386Z,100969.96
2023-04-18T08:32:25.414Z,100973.46
2023-04-18T08:34:59.693Z,100972.98
2023-04-18T08:37:28.667Z,100974.29
2023-04-18T08:39:57.196Z,100975.83
2023-04-18T08:42:30.163Z,100976.30
2023-04-18T08:45:00.198Z,100978.95
2023-04-18T08:47:31.685Z,100973.04
2023-04-18T08:50:01.756Z,100973.22
2023-04-18T08:52:31.524Z,100978.60
2023-04-18T08:54:59.846Z,100979.34
2023-04-18T08:57:28.510Z,100976.34
2023-04-18T09:00:00.699Z,100977.92
2023-04-18T09:02:45.038Z,100974.48
2023-04-18T09:05:19.755Z,100972.54
2023-04-18T09:07:53.634Z,100975.19
2023-04-18T09:10:36.589Z,100969.06
2023-04-18T09:13:56.452Z,100970.73
2023-04-18T09:16:27.518Z,100971.48
2023-04-18T09:19:15.060Z,100965.92
2023-04-18T09:21:50.754Z,100971.38
2023-04-18T09:24:24.895Z,100967.44
2023-04-18T09:27:01.295Z,100963.59
2023-04-18T09:29:47.277Z,100966.75
2023-04-18T09:32:27.555Z,100966.67
2023-04-18T09:35:04.400Z,100962.38
2023-04-18T09:37:33.621Z,100971.98
2023-04-18T09:40:19.783Z,100970.08
2023-04-18T09:42:48.775Z,100973.92
2023-04-18T09:45:17.430Z,100975.45
2023-04-18T09:47:46.108Z,100974.55
2023-04-18T09:50:16.934Z,100967.11
2023-04-18T09:52:46.999Z,100966.37
2023-04-18T09:55:19.452Z,100969.70
2023-04-18T09:57:49.456Z,100969.36
2023-04-18T10:00:28.293Z,100967.84
2023-04-18T10:03:21.226Z,100970.17
2023-04-18T10:05:50.462Z,100971.21
2023-04-18T10:08:18.865Z,100966.33
2023-04-18T10:10:47.246Z,100968.99
2023-04-18T10:13:28.450Z,100969.36
2023-04-18T10:16:00.299Z,100964.77
2023-04-18T10:18:39.451Z,100963.27
2023-04-18T10:21:37.751Z,100960.85
2023-04-18T10:24:56.715Z,100958.27
2023-04-18T10:27:57.070Z,100954.86
2023-04-18T10:30:45.638Z,100949.82
2023-04-18T10:37:13.309Z,100950.52
2023-04-18T10:39:53.966Z,100945.86
2023-04-18T10:42:52.051Z,100947.75
2023-04-18T10:45:24.667Z,100950.63
2023-04-18T10:48:32.750Z,100947.23
2023-04-18T10:51:48.225Z,100939.73
2023-04-18T10:54:36.076Z,100939.77
2023-04-18T10:57:07.652Z,100934.77
2023-04-18T10:59:44.784Z,100932.98
2023-04-18T11:02:24.226Z,100938.95
2023-04-18T11:04:55.430Z,100946.19
2023-04-18T11:07:37.897Z,100944.97
2023-04-18T11:10:09.280Z,100942.88
2023-04-18T11:12:40.789Z,100942.75
2023-04-18T11:15:23.142Z,100937.32
2023-04-18T11:18:03.077Z,100935.32
2023-04-18T11:20:50.882Z,100933.30
2023-04-18T11:23:23.893Z,100935.58
2023-04-18T11:25:56.502Z,100935.52
2023-04-18T11:28:25.083Z,100935.21
2023-04-18T11:30:59.928Z,100936.98
2023-04-18T11:33:29.423Z,100936.25
2023-04-18T11:35:59.973Z,100934.79
2023-04-18T11:38:31.770Z,100936.13
2023-04-18T11:41:02.870Z,100936.73
2023-04-18T11:43:31.359Z,100936.35
2023-04-18T11:46:00.525Z,100933.36
2023-04-18T11:48:37.369Z,100937.77
2023-04-18T11:51:36.013Z,100942.19
2023-04-18T11:54:04.788Z,100940.59
2023-04-18T11:56:45.573Z,100938.98
2023-04-18T11:59:14.784Z,100938.77
2023-04-18T12:01:43.222Z,100935.88
2023-04-18T12:04:11.777Z,100933.70
2023-04-18T12:06:51.243Z,100928.73
2023-04-18T12:09:22.806Z,100931.98
2023-04-18T12:12:03.907Z,100932.95
2023-04-18T12:14:35.824Z,100934.06
2023-04-18T12:17:04.164Z,100934.69
2023-04-18T12:19:33.041Z,100934.71
2023-04-18T12:22:05.402Z,100932.59
2023-04-18T12:24:34.084Z,100929.59
2023-04-18T12:27:24.417Z,100927.30
2023-04-18T12:30:05.556Z,100925.53
2023-04-18T12:32:35.945Z,100930.13
2023-04-18T12:35:05.107Z,100928.68
2023-04-18T12:37:42.886Z,100926.91
2023-04-18T12:40:13.907Z,100931.97
2023-04-18T12:42:42.838Z,100927.40
2023-04-18T12:45:13.233Z,100923.77
2023-04-18T12:47:44.901Z,100923.88
2023-04-18T12:50:22.441Z,100922.74
2023-04-18T12:52:58.460Z,100920.77
2023-04-18T12:55:29.208Z,100921.27
2023-04-18T12:57:58.275Z,100921.30
2023-04-18T13:00:30.156Z,100921.27
2023-04-18T13:02:59.606Z,100922.30
2023-04-18T13:05:33.078Z,100921.77
2023-04-18T13:08:15.165Z,100920.55
2023-04-18T13:10:47.686Z,100920.89
2023-04-18T13:13:16.306Z,100920.55
2023-04-18T13:15:44.885Z,100919.38
2023-04-18T13:18:14.275Z,100915.85
2023-04-18T13:20:54.347Z,100912.80
2023-04-18T13:23:25.659Z,100914.02
2023-04-18T13:25:54.138Z,100912.22
2023-04-18T13:28:23.991Z,100916.39
2023-04-18T13:30:53.083Z,100915.98
2023-04-18T13:33:21.998Z,100914.59
2023-04-18T13:35:50.705Z,100915.39
2023-04-18T13:38:19.129Z,100916.88
2023-04-18T13:40:53.752Z,100913.29
2023-04-18T13:43:30.326Z,100915.79
2023-04-18T13:45:58.993Z,100915.77
2023-04-18T13:48:31.286Z,100908.64
2023-04-18T13:51:00.599Z,100909.91
2023-04-18T13:53:31.070Z,100908.18
2023-04-18T13:56:02.618Z,100904.13
2023-04-18T13:58:31.219Z,100900.09
2023-04-18T14:01:01.921Z,100903.18
2023-04-18T14:03:31.056Z,100905.19
2023-04-18T14:06:00.223Z,100908.56
2023-04-18T14:08:29.084Z,100913.98
2023-04-18T14:10:58.049Z,100909.96
2023-04-18T14:13:27.607Z,100913.75
2023-04-18T14:19:03.910Z,100911.98
2023-04-18T14:21:35.061Z,100916.47
2023-04-18T14:24:06.461Z,100913.98
2023-04-18T14:26:42.923Z,100915.33
2023-04-18T14:29:11.755Z,100910.15
2023-04-18T14:31:41.898Z,100910.35
2023-04-18T14:34:17.516Z,100914.21
2023-04-18T14:36:49.988Z,100912.52
2023-04-18T14:39:18.503Z,100911.20
2023-04-18T14:41:54.170Z,100909.17
2023-04-18T14:44:42.072Z,100910.08
2023-04-18T14:47:11.022Z,100909.55
2023-04-18T14:49:40.291Z,100909.36
2023-04-18T14:52:08.749Z,100904.00
2023-04-18T14:54:37.094Z,100904.38
2023-04-18T14:57:05.965Z,100907.35
2023-04-18T14:59:34.429Z,100902.98
2023-04-18T15:02:02.987Z,100902.80
2023-04-18T15:04:31.476Z,100902.38
2023-04-18T15:07:00.271Z,100902.67
2023-04-18T15:09:37.358Z,100906.51
2023-04-18T15:12:07.010Z,100900.79
2023-04-18T15:14:38.316Z,100903.06
2023-04-18T15:17:06.671Z,100899.91
2023-04-18T15:19:35.275Z,100902.42
2023-04-18T15:22:04.102Z,100903.02
2023-04-18T15:24:33.265Z,100902.00
2023-04-18T15:27:02.246Z,100901.86
2023-04-18T15:29:30.696Z,100900.13
2023-04-18T15:31:59.215Z,100902.52
2023-04-18T15:34:27.560Z,100904.44
2023-04-18T15:36:55.936Z,100904.33
2023-04-18T15:39:24.247Z,100900.52
2023-04-18T15:41:54.559Z,100899.66
2023-04-18T15:44:23.141Z,100900.80
2023-04-18T15:46:51.824Z,100900.76
2023-04-18T15:49:20.352Z,100902.39
2023-04-18T15:51:48.922Z,100902.50
2023-04-18T15:54:17.287Z,100902.05
2023-04-18T15:56:45.601Z,100900.80
2023-04-18T15:59:13.959Z,100902.77
2023-04-18T16:01:45.208Z,100904.20
2023-04-18T16:04:14.808Z,100903.22
2023-04-18T16:06:43.414Z,100907.68
2023-04-18T16:09:11.824Z,100909.73
2023-04-18T16:11:40.246Z,100908.99
2023-04-18T16:14:08.558Z,100914.08
2023-04-18T16:16:36.810Z,100912.39
2023-04-18T16:19:05.661Z,100906.61
2023-04-18T16:21:34.022Z,100908.40
2023-04-18T16:24:02.490Z,100904.17
2023-04-18T16:26:30.840Z,100905.91
2023-04-18T16:28:59.247Z,100905.71
2023-04-18T16:31:27.803Z,100902.35
2023-04-18T16:33:56.492Z,100904.88
2023-04-18T16:36:24.909Z,100904.05
2023-04-18T16:38:53.202Z,100906.74
2023-04-18T16:41:21.637Z,100902.39
2023-04-18T16:43:50.283Z,100907.65
2023-04-18T16:46:19.155Z,100907.95
2023-04-18T16:48:48.662Z,100907.71
2023-04-18T16:51:18.188Z,100907.77
2023-04-18T16:53:46.818Z,100912.16
2023-04-18T16:56:15.257Z,100910.77
2023-04-18T16:58:43.571Z,100910.48
2023-04-18T17:01:12.036Z,100913.80
2023-04-18T17:03:40.969Z,100910.27
2023-04-18T17:06:09.514Z,100908.81
2023-04-18T17:08:37.965Z,100909.41
2023-04-18T17:11:06.468Z,100908.50
2023-04-18T17:13:36.087Z,100909.62
2023-04-18T17:16:05.128Z,100910.55
2023-04-18T17:18:33.499Z,100913.61
2023-04-18T17:21:01.868Z,100918.21
2023-04-18T17:23:32.231Z,100915.58
2023-04-18T17:26:01.245Z,100917.61
2023-04-18T17:28:29.625Z,100917.66
2023-04-18T17:30:58.576Z,100919.61
2023-04-18T17:33:27.187Z,100917.61
2023-04-18T17:35:55.465Z,100918.89
2023-04-18T17:38:23.990Z,100919.81
2023-04-18T17:41:03.238Z,100922.07
2023-04-18T17:43:31.641Z,100919.64
2023-04-18T17:49:43.341Z,100917.52
2023-04-18T17:52:11.882Z,100921.01
2023-04-18T17:54:40.396Z,100919.93
2023-04-18T17:57:08.744Z,100921.84
2023-04-18T17:59:37.868Z,100920.54
2023-04-18T18:02:06.862Z,100919.50
2023-04-18T18:04:35.412Z,100921.82
2023-04-18T18:07:05.106Z,100921.16
2023-04-18T18:09:33.566Z,100927.05
2023-04-18T18:12:02.582Z,100923.84
2023-04-18T18:14:31.121Z,100927.23
2023-04-18T18:16:59.503Z,100928.75
2023-04-18T18:19:28.039Z,100926.55
2023-04-18T18:21:56.543Z,100928.14
2023-04-18T18:24:26.834Z,100928.29
2023-04-18T18:26:55.247Z,100927.87
2023-04-18T18:29:24.070Z,100928.61
2023-04-18T18:31:52.465Z,100929.09
2023-04-18T18:34:21.627Z,100930.86
2023-04-18T18:36:50.922Z,100927.73
2023-04-18T18:40:20.481Z,100924.09
2023-04-18T18:44:14.086Z,100926.48
2023-04-18T18:47:07.709Z,100930.40
2023-04-18T18:49:36.339Z,100925.86
2023-04-18T18:52:07.487Z,100925.67
2023-04-18T18:54:36.067Z,100923.87
2023-04-18T18:57:04.483Z,100923.03
2023-04-18T18:59:32.819Z,100918.29
2023-04-18T19:02:01.417Z,100922.36
2023-04-18T19:04:30.256Z,100919.57
2023-04-18T19:06:58.718Z,100919.28
2023-04-18T19:09:27.402Z,100920.13
2023-04-18T19:11:56.906Z,100916.52
2023-04-18T19:14:25.253Z,100917.14
2023-04-18T19:16:56.104Z,100917.27
2023-04-18T19:19:24.986Z,100918.45
2023-04-18T19:21:53.356Z,100914.27
2023-04-18T19:24:21.686Z,100916.25
2023-04-18T19:26:50.036Z,100914.86
2023-04-18T19:29:18.449Z,100909.47
2023-04-18T19:31:46.894Z,100912.08
2023-04-18T19:34:23.532Z,100911.61
2023-04-18T19:36:51.823Z,100907.66
2023-04-18T19:39:20.247Z,100907.27
2023-04-18T19:41:48.616Z,100902.87
2023-04-18T19:44:16.998Z,100905.88
2023-04-18T19:46:45.365Z,100903.05
2023-04-18T19:49:13.863Z,100900.14
2023-04-18T19:51:42.476Z,100900.16
2023-04-18T19:57:12.587Z,100897.13
2023-04-18T19:59:40.878Z,100899.38
2023-04-18T20:02:09.350Z,100900.23
2023-04-18T20:04:38.226Z,100899.02
2023-04-18T20:07:12.871Z,100896.16
2023-04-18T20:09:41.176Z,100896.64
2023-04-18T20:12:09.580Z,100893.70
2023-04-18T20:14:37.978Z,100887.45
2023-04-18T20:17:06.588Z,100886.89
2023-04-18T20:19:35.037Z,100884.81
2023-04-18T20:22:03.820Z,100880.66
2023-04-18T20:24:34.579Z,100881.38
2023-04-18T20:27:02.973Z,100880.71
2023-04-18T20:29:33.767Z,100881.05
2023-04-18T20:32:02.119Z,100876.09
2023-04-18T20:34:31.371Z,100878.79
2023-04-18T20:37:00.150Z,100876.96
2023-04-18T20:39:28.568Z,100876.66
2023-04-18T20:41:57.928Z,100875.05
2023-04-18T20:44:26.557Z,100873.56
2023-04-18T20:46:54.929Z,100877.03
2023-04-18T20:49:23.398Z,100874.48
2023-04-18T20:51:51.715Z,100874.94
2023-04-18T20:54:20.076Z,100867.58
2023-04-18T20:56:48.387Z,100865.75
2023-04-18T20:59:42.529Z,100863.23
2023-04-18T21:06:28.385Z,100863.05
2023-04-18T21:08:56.817Z,100862.14
2023-04-18T21:11:25.253Z,100860.33
2023-04-18T21:13:53.571Z,100861.25
2023-04-18T21:16:23.833Z,100858.36
2023-04-18T21:18:55.083Z,100857.17
2023-04-18T21:21:24.436Z,100854.27
2023-04-18T21:23:52.701Z,100851.77
2023-04-18T21:26:21.128Z,100849.00
2023-04-18T21:29:01.022Z,100845.30
2023-04-18T21:31:32.736Z,100847.83
2023-04-18T21:34:04.283Z,100846.38
2023-04-18T21:36:57.840Z,100842.98
2023-04-18T21:39:27.607Z,100842.00
2023-04-18T21:41:55.917Z,100845.92
2023-04-18T21:44:24.363Z,100841.80
2023-04-18T21:46:52.686Z,100840.76
2023-04-18T21:49:21.123Z,100835.78
2023-04-18T21:51:49.405Z,100835.27
2023-04-18T21:54:17.718Z,100833.73
2023-04-18T21:56:46.033Z,100830.08
2023-04-18T21:59:14.482Z,100828.02
2023-04-18T22:01:43.401Z,100828.96
2023-04-18T22:10:28.446Z,100820.77
2023-04-18T22:12:57.565Z,100816.68
2023-04-18T22:15:27.202Z,100816.84
2023-04-18T22:17:56.491Z,100812.48
2023-04-18T22:20:26.830Z,100808.48
2023-04-18T22:22:55.324Z,100806.91
2023-04-18T22:25:23.735Z,100803.89
2023-04-18T22:27:52.055Z,100800.84
2023-04-18T22:30:20.953Z,100799.52
2023-04-18T22:32:49.478Z,100794.92
2023-04-18T22:36:19.369Z,100793.13
2023-04-18T22:38:47.737Z,100790.52
2023-04-18T22:41:16.029Z,100790.52
2023-04-18T22:43:44.503Z,100787.31
2023-04-18T22:46:12.887Z,100785.61
2023-04-18T22:48:41.216Z,100785.55
2023-04-18T22:51:09.524Z,100780.45
2023-04-18T22:53:37.846Z,100780.83
2023-04-18T22:56:06.716Z,100778.39
2023-04-18T22:58:35.085Z,100777.27
2023-04-18T23:17:53.256Z,100753.49
2023-04-18T23:20:22.160Z,100751.17
2023-04-18T23:22:51.707Z,100748.85
2023-04-18T23:25:20.992Z,100743.98
2023-04-18T23:27:49.349Z,100744.55
2023-04-18T23:30:17.650Z,100742.16
2023-04-18T23:32:46.010Z,100739.64
2023-04-18T23:35:14.478Z,100738.23
2023-04-18T23:37:42.987Z,100728.52
2023-04-18T23:40:11.360Z,100722.20
2023-04-18T23:42:39.768Z,100717.58
2023-04-18T23:45:08.352Z,100716.41
2023-04-18T23:47:36.892Z,100716.48
2023-04-18T23:50:06.090Z,100709.66
2023-04-18T23:52:34.440Z,100711.41
2023-04-18T23:55:02.929Z,100704.10
2023-04-18T23:57:31.369Z,100702.23
2023-04-18T23:59:59.701Z,100699.11
